Time;durP1;ratioP1;P1;durP2;ratioP2;P2;SDS_P1;SDS_P2;PMS_P1;PMS_P2;Temp;Humidity;BMP_temperature;BMP_pressure;BME280_temperature;BME280_humidity;BME280_pressure;Samples;Min_cycle;Max_cycle;Signal;HPM_P1;HPM_P2
2021/12/09 00:01:53;;;;;;;0.53;0.53;;;4.00;99.90;3.40;99943.00;;;;5057553;28;20193;-73
2021/12/09 00:04:30;;;;;;;1.40;0.97;;;3.90;99.90;3.50;99962.00;;;;5054702;28;20189;-73
2021/12/09 00:07:01;;;;;;;0.30;0.30;;;3.90;99.90;3.60;99949.00;;;;5074100;28;20226;-73
2021/12/09 00:09:36;;;;;;;0.43;0.43;;;3.90;99.90;3.50;99957.00;;;;5073616;28;20249;-74
2021/12/09 00:12:08;;;;;;;0.93;0.83;;;3.90;99.90;3.40;99925.00;;;;5073915;28;20222;-74
2021/12/09 00:14:43;;;;;;;0.40;0.40;;;3.80;99.90;3.60;99957.00;;;;5073773;28;20169;-74
2021/12/09 00:17:20;;;;;;;0.80;0.80;;;3.80;99.90;3.50;99916.00;;;;5074008;28;20169;-74
2021/12/09 00:19:58;;;;;;;0.87;0.87;;;3.80;99.90;3.20;99944.00;;;;5074355;28;20193;-75
2021/12/09 00:22:33;;;;;;;0.43;0.43;;;3.70;99.90;3.20;99953.00;;;;5057257;28;20173;-75
2021/12/09 00:25:07;;;;;;;1.17;0.70;;;3.60;99.90;3.20;99953.00;;;;5074560;28;20180;-75
2021/12/09 00:27:42;;;;;;;0.40;0.40;;;3.70;99.90;3.40;99904.00;;;;5074221;28;20177;-75
2021/12/09 00:30:13;;;;;;;0.57;0.57;;;3.70;99.90;3.30;99920.00;;;;5073920;28;20629;-75
2021/12/09 00:32:48;;;;;;;0.53;0.53;;;3.70;99.90;3.20;99965.00;;;;5072512;28;20332;-74
2021/12/09 00:35:31;;;;;;;0.90;0.90;;;3.70;99.90;3.10;99964.00;;;;5057461;28;20187;-74
2021/12/09 00:38:08;;;;;;;0.30;0.30;;;3.60;99.90;3.30;99968.00;;;;5073827;28;20187;-74
2021/12/09 00:40:46;;;;;;;0.80;0.80;;;3.70;99.90;3.20;99960.00;;;;5073429;28;20230;-74
2021/12/09 00:43:17;;;;;;;0.30;0.30;;;3.60;99.90;3.40;99944.00;;;;5073407;28;20173;-74
2021/12/09 00:45:54;;;;;;;0.50;0.50;;;3.60;99.90;3.30;99952.00;;;;5057078;28;20284;-75
2021/12/09 00:48:20;;;;;;;0.57;0.50;;;3.70;99.90;3.10;99968.00;;;;5072694;28;20177;-72
2021/12/09 00:51:01;;;;;;;1.23;0.53;;;3.60;99.90;3.30;99961.00;;;;5072983;28;20514;-73
2021/12/09 00:53:27;;;;;;;1.50;0.60;;;3.60;99.90;3.30;99957.00;;;;5057330;28;20272;-73
2021/12/09 00:56:09;;;;;;;3.83;3.43;;;3.60;99.90;3.20;99938.00;;;;5071503;28;20986;-73
2021/12/09 00:58:43;;;;;;;0.50;0.50;;;3.60;99.90;3.20;99957.00;;;;5072411;28;20181;-73
2021/12/09 01:01:14;;;;;;;0.30;0.30;;;3.60;99.90;3.10;99953.00;;;;5072761;28;20638;-73
2021/12/09 01:03:43;;;;;;;0.70;0.70;;;3.60;99.90;3.40;99960.00;;;;5071901;28;20205;-74
2021/12/09 01:06:15;;;;;;;0.50;0.50;;;3.60;99.90;3.50;99946.00;;;;5089112;28;20185;-74
2021/12/09 01:08:51;;;;;;;0.83;0.83;;;3.70;99.90;3.40;99968.00;;;;5089470;28;20648;-74
2021/12/09 01:11:22;;;;;;;0.40;0.40;;;3.70;99.90;3.40;99967.00;;;;5072568;28;20197;-74
2021/12/09 01:13:59;;;;;;;0.50;0.50;;;3.70;99.90;3.40;99973.00;;;;5088061;28;20182;-74
2021/12/09 01:16:28;;;;;;;0.40;0.40;;;3.80;99.90;3.40;99959.00;;;;5089335;28;20664;-74
2021/12/09 01:19:05;;;;;;;0.40;0.40;;;3.80;99.90;3.30;99902.00;;;;5090105;28;20177;-74
2021/12/09 01:21:39;;;;;;;0.30;0.30;;;3.70;99.90;3.50;99916.00;;;;5089143;28;20191;-74
2021/12/09 01:24:11;;;;;;;0.30;0.30;;;3.70;99.90;3.40;99967.00;;;;5089026;28;20177;-74
2021/12/09 01:26:45;;;;;;;1.70;0.80;;;3.70;99.90;3.30;99970.00;;;;5089452;28;20182;-73
2021/12/09 01:29:27;;;;;;;0.50;0.50;;;3.70;99.90;3.20;99971.00;;;;5089401;28;20744;-73
2021/12/09 01:32:05;;;;;;;0.70;0.70;;;3.70;99.90;3.10;99943.00;;;;5072645;28;20221;-73
2021/12/09 01:34:36;;;;;;;0.37;0.37;;;3.70;99.90;3.10;99982.00;;;;5080814;28;20173;-73
2021/12/09 01:37:10;;;;;;;0.40;0.40;;;3.70;99.90;3.20;99980.00;;;;5072545;28;20522;-73
2021/12/09 01:39:44;;;;;;;0.40;0.40;;;3.70;99.90;3.30;99920.00;;;;5072784;28;20268;-73
2021/12/09 01:42:17;;;;;;;0.57;0.57;;;3.70;99.90;3.30;99980.00;;;;5072537;28;20596;-73
2021/12/09 01:44:48;;;;;;;3.33;1.20;;;3.70;99.90;3.20;99981.00;;;;5056557;28;20239;-73
2021/12/09 01:47:21;;;;;;;0.90;0.90;;;3.60;99.90;3.30;99975.00;;;;5072586;28;20653;-73
2021/12/09 01:49:58;;;;;;;1.03;0.63;;;3.70;99.90;3.20;99946.00;;;;5055952;28;20177;-73
2021/12/09 01:52:30;;;;;;;0.37;0.37;;;3.60;99.90;3.30;99983.00;;;;5072197;28;20193;-73
2021/12/09 01:55:00;;;;;;;0.40;0.40;;;3.60;99.90;3.30;99961.00;;;;5055457;28;20588;-73
2021/12/09 01:57:32;;;;;;;0.47;0.47;;;3.70;99.90;3.20;99989.00;;;;5072176;28;20178;-73
2021/12/09 02:00:11;;;;;;;0.53;0.53;;;3.60;99.90;3.20;99976.00;;;;5054896;28;20219;-73
2021/12/09 02:02:46;;;;;;;0.33;0.30;;;3.60;99.90;3.10;99978.00;;;;5072111;28;20180;-73
2021/12/09 02:05:19;;;;;;;0.70;0.70;;;3.60;99.90;3.10;99989.00;;;;5068055;28;20263;-73
2021/12/09 02:07:50;;;;;;;0.30;0.30;;;3.50;99.90;3.20;99989.00;;;;5088775;28;20195;-73
2021/12/09 02:10:24;;;;;;;0.50;0.50;;;3.50;99.90;3.20;99924.00;;;;5073179;28;20185;-74
2021/12/09 02:13:00;;;;;;;0.67;0.67;;;3.50;99.90;3.10;99974.00;;;;5088111;28;20213;-73
2021/12/09 02:15:29;;;;;;;0.60;0.50;;;3.50;99.90;3.00;99983.00;;;;5088670;28;20179;-73
2021/12/09 02:18:07;;;;;;;1.07;1.07;;;3.50;99.90;3.10;99980.00;;;;5088109;28;20180;-75
2021/12/09 02:20:40;;;;;;;0.93;0.87;;;3.50;99.90;3.10;99989.00;;;;5088756;28;20209;-75
2021/12/09 02:23:16;;;;;;;0.57;0.47;;;3.50;99.90;3.10;99974.00;;;;5088879;28;20216;-75
2021/12/09 02:25:54;;;;;;;3.73;0.90;;;3.50;99.90;3.10;99959.00;;;;5088680;28;20242;-75
2021/12/09 02:28:25;;;;;;;0.90;0.90;;;3.50;99.90;3.30;99935.00;;;;5087700;28;20660;-75
2021/12/09 02:30:59;;;;;;;0.40;0.40;;;3.60;99.90;3.10;99996.00;;;;5088448;28;20236;-75
2021/12/09 02:33:29;;;;;;;0.97;0.60;;;3.60;99.90;3.10;99996.00;;;;5088228;28;20545;-75
2021/12/09 02:36:06;;;;;;;0.30;0.30;;;3.60;99.90;3.20;99989.00;;;;5072682;28;20169;-75
2021/12/09 02:38:43;;;;;;;0.30;0.30;;;3.60;99.90;3.30;99972.00;;;;5087471;28;20177;-74
2021/12/09 02:41:19;;;;;;;0.40;0.40;;;3.70;99.90;3.00;99987.00;;;;5087640;28;20181;-75
2021/12/09 02:44:01;;;;;;;0.30;0.30;;;3.50;99.90;3.10;99957.00;;;;5087445;28;20235;-73
2021/12/09 02:46:27;;;;;;;0.40;0.40;;;3.50;99.90;3.10;100000.00;;;;5088625;28;20161;-74
2021/12/09 02:49:18;;;;;;;0.40;0.40;;;3.50;99.90;3.10;99986.00;;;;5088519;28;20204;-75
2021/12/09 02:51:51;;;;;;;0.47;0.47;;;3.50;99.90;3.20;99983.00;;;;5071535;28;20283;-75
2021/12/09 02:54:23;;;;;;;0.30;0.30;;;3.50;99.90;2.80;99990.00;;;;5087723;28;20177;-75
2021/12/09 02:57:04;;;;;;;0.30;0.30;;;3.50;99.90;3.10;100002.00;;;;5088749;28;20235;-75
2021/12/09 02:59:40;;;;;;;0.40;0.40;;;3.50;99.90;3.00;100006.00;;;;5072769;28;20268;-75
2021/12/09 03:02:12;;;;;;;0.93;0.93;;;3.50;99.90;2.90;99998.00;;;;5087354;28;20268;-75
2021/12/09 03:04:49;;;;;;;0.40;0.40;;;3.40;99.90;3.10;100005.00;;;;5087308;28;20280;-75
2021/12/09 03:07:36;;;;;;;0.40;0.40;;;3.50;99.90;3.10;100004.00;;;;5087807;28;20177;-75
2021/12/09 03:10:25;;;;;;;0.30;0.30;;;3.50;99.90;3.10;99949.00;;;;5088067;28;20174;-75
2021/12/09 03:13:17;;;;;;;0.30;0.30;;;3.50;99.90;3.10;100001.00;;;;5087416;28;20291;-74
2021/12/09 03:15:51;;;;;;;0.40;0.40;;;3.40;99.90;2.90;99990.00;;;;5084543;28;20242;-75
2021/12/09 03:18:24;;;;;;;1.03;1.00;;;3.40;99.90;3.00;99996.00;;;;5088995;28;20185;-75
2021/12/09 03:20:58;;;;;;;0.30;0.30;;;3.40;99.90;3.00;99941.00;;;;5091293;28;20177;-75
2021/12/09 03:23:27;;;;;;;0.80;0.80;;;3.50;99.90;2.80;99990.00;;;;5091637;28;20178;-75
2021/12/09 03:25:58;;;;;;;0.37;0.37;;;3.40;99.90;3.00;99988.00;;;;5091276;28;20192;-75
2021/12/09 03:28:34;;;;;;;0.60;0.60;;;3.40;99.90;3.20;99989.00;;;;5091949;28;20552;-75
2021/12/09 03:31:02;;;;;;;0.83;0.83;;;3.40;99.90;3.00;100004.00;;;;5091634;28;20184;-75
2021/12/09 03:33:42;;;;;;;0.43;0.43;;;3.40;99.90;2.80;99952.00;;;;5091894;28;20271;-75
2021/12/09 03:36:10;;;;;;;0.50;0.50;;;3.40;99.90;2.80;99965.00;;;;5075972;28;20173;-74
2021/12/09 03:38:42;;;;;;;0.43;0.43;;;3.40;99.90;2.80;100013.00;;;;5074672;28;20545;-75
2021/12/09 03:41:11;;;;;;;0.40;0.40;;;3.40;99.90;2.60;100012.00;;;;5058077;28;20193;-75
2021/12/09 03:43:42;;;;;;;1.20;0.73;;;3.30;99.90;2.80;99949.00;;;;5057704;28;20177;-75
2021/12/09 03:46:14;;;;;;;0.30;0.30;;;3.40;99.90;2.80;100005.00;;;;5076019;28;20339;-75
2021/12/09 03:48:46;;;;;;;0.50;0.50;;;3.30;99.90;3.00;100016.00;;;;5057599;28;20201;-74
2021/12/09 03:51:26;;;;;;;0.50;0.50;;;3.40;99.90;2.90;100010.00;;;;5074641;28;20212;-74
2021/12/09 03:53:53;;;;;;;0.30;0.30;;;3.40;99.90;2.80;100002.00;;;;5073987;28;20256;-74
2021/12/09 03:56:32;;;;;;;0.30;0.30;;;3.40;99.90;2.90;100000.00;;;;5074559;28;20181;-75
2021/12/09 03:59:03;;;;;;;0.40;0.40;;;3.40;99.90;3.10;100009.00;;;;5074693;28;20191;-75
2021/12/09 04:01:40;;;;;;;0.30;0.30;;;3.50;99.90;3.00;100016.00;;;;5057668;28;20239;-74
2021/12/09 04:04:15;;;;;;;0.30;0.30;;;3.50;99.90;3.00;100013.00;;;;5070534;28;20193;-73
2021/12/09 04:06:46;;;;;;;2.63;2.50;;;3.40;99.90;3.00;100015.00;;;;5073884;28;20242;-74
2021/12/09 04:09:22;;;;;;;0.30;0.30;;;3.40;99.90;2.90;100004.00;;;;5060376;28;20193;-75
2021/12/09 04:11:52;;;;;;;2.00;0.90;;;3.40;99.90;3.00;99997.00;;;;5053562;28;20749;-74
2021/12/09 04:14:31;;;;;;;0.73;0.73;;;3.50;99.90;3.00;99987.00;;;;5053752;28;20178;-74
2021/12/09 04:17:08;;;;;;;0.27;0.27;;;3.40;99.90;2.90;99999.00;;;;5069662;28;20182;-74
2021/12/09 04:19:46;;;;;;;0.60;0.60;;;3.40;99.90;2.80;100005.00;;;;5070792;28;20213;-74
2021/12/09 04:22:26;;;;;;;0.30;0.30;;;3.40;99.90;2.90;99994.00;;;;5069561;28;20166;-73
2021/12/09 04:25:03;;;;;;;0.40;0.40;;;3.40;99.90;3.30;99993.00;;;;5070188;28;20640;-72
2021/12/09 04:27:38;;;;;;;0.70;0.70;;;3.50;99.90;3.00;99999.00;;;;5054470;28;20158;-72
2021/12/09 04:30:10;;;;;;;0.40;0.40;;;3.50;99.90;3.10;100004.00;;;;5055242;28;20185;-72
2021/12/09 04:32:44;;;;;;;0.30;0.30;;;3.50;99.90;3.20;100009.00;;;;5069338;28;20309;-74
2021/12/09 04:35:18;;;;;;;0.50;0.50;;;3.50;99.90;3.10;100005.00;;;;5078261;28;20235;-74
2021/12/09 04:37:55;;;;;;;0.30;0.30;;;3.50;99.90;2.90;100015.00;;;;5073371;28;20638;-72
2021/12/09 04:40:35;;;;;;;0.30;0.30;;;3.40;99.90;2.80;100021.00;;;;5074370;28;20174;-74
2021/12/09 04:43:07;;;;;;;0.40;0.40;;;3.40;99.90;3.20;100011.00;;;;5057267;28;20234;-74
2021/12/09 04:45:46;;;;;;;0.40;0.40;;;3.40;99.90;3.00;100015.00;;;;5056720;28;20189;-74
2021/12/09 04:48:22;;;;;;;0.90;0.90;;;3.40;99.90;3.00;100022.00;;;;5090225;28;20283;-74
2021/12/09 04:50:58;;;;;;;0.63;0.63;;;3.40;99.90;2.80;100008.00;;;;5090086;28;20181;-73
2021/12/09 04:53:37;;;;;;;0.30;0.30;;;3.30;99.90;3.20;100026.00;;;;5089845;28;20213;-73
2021/12/09 04:56:09;;;;;;;0.50;0.50;;;3.40;99.90;3.00;100009.00;;;;5089754;28;20181;-73
2021/12/09 04:58:40;;;;;;;0.60;0.60;;;3.40;99.90;3.10;100003.00;;;;5073443;28;20177;-73
2021/12/09 05:01:11;;;;;;;0.30;0.30;;;3.50;99.90;3.00;100020.00;;;;5074575;28;20170;-73
2021/12/09 05:03:45;;;;;;;0.50;0.50;;;3.50;99.90;3.00;99968.00;;;;5072690;28;20197;-73
2021/12/09 05:06:26;;;;;;;5.67;1.00;;;3.40;99.90;2.90;100010.00;;;;5073700;28;20276;-75
2021/12/09 05:08:55;;;;;;;0.57;0.57;;;3.40;99.90;3.00;100030.00;;;;5055979;28;20185;-75
2021/12/09 05:14:09;;;;;;;0.40;0.40;;;3.50;99.90;3.20;100013.00;;;;5073381;28;20165;-73
2021/12/09 05:16:38;;;;;;;2.93;0.70;;;3.50;99.90;3.00;100027.00;;;;5074082;28;20168;-73
2021/12/09 05:19:15;;;;;;;0.30;0.30;;;3.50;99.90;3.40;100032.00;;;;5073656;28;20193;-73
2021/12/09 05:21:44;;;;;;;1.40;1.37;;;3.70;99.90;3.10;99991.00;;;;5055920;28;20181;-73
2021/12/09 05:24:19;;;;;;;0.50;0.50;;;3.70;99.90;3.20;100038.00;;;;5072629;28;20162;-73
2021/12/09 05:26:54;;;;;;;0.30;0.30;;;3.60;99.90;3.10;100046.00;;;;5071557;28;20246;-73
2021/12/09 05:29:32;;;;;;;0.30;0.30;;;3.60;99.90;3.30;100034.00;;;;5072965;28;20184;-73
2021/12/09 05:32:08;;;;;;;0.20;0.20;;;3.60;99.90;3.30;100032.00;;;;5072005;28;20213;-73
2021/12/09 05:34:50;;;;;;;2.50;2.40;;;3.70;99.90;3.30;100047.00;;;;5070875;28;20184;-74
2021/12/09 05:37:23;;;;;;;0.50;0.50;;;3.70;99.90;3.20;100045.00;;;;5072241;28;20178;-73
2021/12/09 05:39:56;;;;;;;0.37;0.37;;;3.80;99.90;3.30;100033.00;;;;5072093;28;20185;-74
2021/12/09 05:42:31;;;;;;;0.60;0.60;;;3.70;99.90;3.30;100043.00;;;;5071834;28;20185;-73
2021/12/09 05:45:05;;;;;;;0.30;0.30;;;3.70;99.90;3.50;100040.00;;;;5072417;28;20227;-73
2021/12/09 05:47:42;;;;;;;0.40;0.40;;;3.80;99.90;3.90;100062.00;;;;5072169;28;20181;-74
2021/12/09 05:50:19;;;;;;;0.33;0.33;;;4.00;99.90;3.50;100051.00;;;;5072257;28;20250;-74
2021/12/09 05:52:47;;;;;;;0.40;0.40;;;3.90;99.90;3.70;100053.00;;;;5071700;28;20224;-73
2021/12/09 05:55:24;;;;;;;0.47;0.47;;;4.00;99.90;4.40;100054.00;;;;5089688;28;20190;-73
2021/12/09 05:57:58;;;;;;;0.30;0.30;;;4.20;99.90;3.70;100008.00;;;;5056116;28;20645;-72
2021/12/09 06:00:33;;;;;;;0.30;0.30;;;4.10;99.90;3.70;100063.00;;;;5072338;28;20550;-73
2021/12/09 06:03:02;;;;;;;0.37;0.37;;;4.10;99.90;3.50;100056.00;;;;5071079;28;20181;-73
2021/12/09 06:05:33;;;;;;;0.73;0.73;;;4.00;99.90;3.40;100041.00;;;;5071917;28;20592;-74
2021/12/09 06:08:02;;;;;;;0.37;0.37;;;3.90;99.90;3.70;100057.00;;;;5071970;28;20181;-74
2021/12/09 06:10:37;;;;;;;0.87;0.87;;;4.00;99.90;3.80;100023.00;;;;5073540;28;20235;-74
2021/12/09 06:13:15;;;;;;;1.33;0.77;;;4.00;99.90;3.50;100016.00;;;;5072159;28;20232;-73
2021/12/09 06:15:49;;;;;;;0.30;0.30;;;3.90;99.90;3.20;100026.00;;;;5070692;28;20166;-73
2021/12/09 06:18:25;;;;;;;0.40;0.40;;;3.80;99.90;3.40;100056.00;;;;5055084;28;20189;-74
2021/12/09 06:20:59;;;;;;;1.10;1.10;;;3.80;99.90;3.40;100079.00;;;;5072323;28;20173;-74
2021/12/09 06:23:39;;;;;;;0.40;0.40;;;3.90;99.90;3.30;100069.00;;;;5071449;28;20181;-74
2021/12/09 06:26:09;;;;;;;0.37;0.37;;;3.80;99.90;3.50;100077.00;;;;5088459;28;20177;-73
2021/12/09 06:28:44;;;;;;;0.50;0.50;;;3.80;99.90;3.30;100041.00;;;;5055352;28;20186;-73
2021/12/09 06:31:21;;;;;;;0.30;0.30;;;3.80;99.90;3.50;100066.00;;;;5071352;28;20731;-74
2021/12/09 06:33:53;;;;;;;0.40;0.40;;;3.90;99.90;3.30;100066.00;;;;5071674;28;20260;-75
2021/12/09 06:36:22;;;;;;;0.87;0.57;;;3.80;99.90;3.20;100019.00;;;;5072132;28;20189;-74
2021/12/09 06:38:54;;;;;;;0.60;0.57;;;3.80;99.90;3.20;100068.00;;;;5071884;28;20532;-73
2021/12/09 06:41:28;;;;;;;0.67;0.67;;;3.70;99.90;3.30;100069.00;;;;5088591;28;20185;-73
2021/12/09 06:44:04;;;;;;;0.30;0.30;;;3.80;99.90;3.30;100058.00;;;;5054887;28;20669;-73
2021/12/09 06:46:41;;;;;;;0.33;0.33;;;3.70;99.90;3.20;100080.00;;;;5055160;28;20641;-73
2021/12/09 06:49:23;;;;;;;0.60;0.60;;;3.70;99.90;3.60;100079.00;;;;5071701;28;20185;-73
2021/12/09 06:51:54;;;;;;;0.30;0.30;;;3.80;99.90;3.60;100075.00;;;;5054575;28;20200;-74
2021/12/09 06:54:30;;;;;;;0.40;0.40;;;3.80;99.90;3.40;100074.00;;;;5074293;28;20173;-74
2021/12/09 06:57:00;;;;;;;2.87;2.00;;;3.80;99.90;3.40;100084.00;;;;5076591;28;20163;-74
2021/12/09 06:59:28;;;;;;;0.60;0.60;;;3.80;99.90;3.50;100070.00;;;;5075140;28;20208;-74
2021/12/09 07:01:57;;;;;;;0.50;0.50;;;3.80;99.90;3.60;100089.00;;;;5058812;28;20692;-74
2021/12/09 07:04:33;;;;;;;0.30;0.30;;;3.90;99.90;3.50;100070.00;;;;5075373;28;20235;-74
2021/12/09 07:07:10;;;;;;;0.60;0.60;;;4.00;99.90;3.80;100081.00;;;;5089037;28;20657;-74
2021/12/09 07:09:45;;;;;;;0.43;0.43;;;4.00;99.90;4.00;100095.00;;;;5092018;28;20189;-74
2021/12/09 07:12:15;;;;;;;0.47;0.47;;;4.10;99.90;3.60;100086.00;;;;5092137;28;20188;-74
2021/12/09 07:14:51;;;;;;;0.43;0.43;;;4.10;99.90;3.60;100060.00;;;;5092134;28;20215;-74
2021/12/09 07:17:20;;;;;;;0.30;0.30;;;4.00;99.90;3.50;100100.00;;;;5092561;28;20181;-74
2021/12/09 07:19:58;;;;;;;0.30;0.30;;;4.00;99.90;3.70;100102.00;;;;5076363;28;20196;-74
2021/12/09 07:22:34;;;;;;;0.50;0.50;;;4.00;99.90;3.90;100092.00;;;;5090714;28;20182;-72
2021/12/09 07:25:09;;;;;;;0.30;0.30;;;4.20;99.90;3.70;100081.00;;;;5091891;28;20173;-72
2021/12/09 07:27:52;;;;;;;0.63;0.63;;;4.10;99.90;3.60;100085.00;;;;5092148;28;20219;-73
2021/12/09 07:30:26;;;;;;;0.30;0.30;;;4.10;99.90;3.60;100093.00;;;;5091326;28;20208;-73
2021/12/09 07:33:08;;;;;;;0.60;0.60;;;4.00;99.90;3.70;100050.00;;;;5076433;28;20240;-73
2021/12/09 07:35:45;;;;;;;0.67;0.67;;;4.10;99.90;3.70;100090.00;;;;5091088;28;20580;-73
2021/12/09 07:38:23;;;;;;;1.03;1.03;;;4.10;99.90;3.70;100101.00;;;;5055921;28;20190;-73
2021/12/09 07:40:54;;;;;;;0.63;0.63;;;4.10;99.90;3.60;100092.00;;;;5054270;28;20637;-73
2021/12/09 07:43:25;;;;;;;0.30;0.30;;;4.10;99.90;3.80;100106.00;;;;5053510;28;20693;-73
2021/12/09 07:45:54;;;;;;;0.53;0.53;;;4.20;99.90;3.60;100099.00;;;;5054677;28;20178;-73
2021/12/09 07:48:29;;;;;;;0.30;0.30;;;4.20;99.90;3.60;100060.00;;;;5054933;28;20186;-73
2021/12/09 07:51:05;;;;;;;0.37;0.37;;;4.10;99.90;3.90;100065.00;;;;5054304;28;20209;-73
2021/12/09 07:53:36;;;;;;;0.30;0.30;;;4.20;99.90;4.10;100114.00;;;;5055672;28;20208;-73
2021/12/09 07:56:13;;;;;;;0.50;0.50;;;4.40;99.90;3.90;100117.00;;;;5053673;28;20653;-73
2021/12/09 07:58:44;;;;;;;0.47;0.47;;;4.30;99.90;4.20;100115.00;;;;5055545;28;20170;-73
2021/12/09 08:01:21;;;;;;;0.47;0.47;;;4.40;99.90;4.10;100106.00;;;;5053759;28;20237;-73
2021/12/09 08:03:55;;;;;;;1.23;0.77;;;4.40;99.90;3.70;100133.00;;;;5070461;28;20661;-73
2021/12/09 08:06:31;;;;;;;0.30;0.30;;;4.40;99.90;3.80;100144.00;;;;5057716;28;20188;-73
2021/12/09 08:09:04;;;;;;;0.97;0.90;;;4.30;99.90;3.50;100126.00;;;;5074375;28;20648;-73
2021/12/09 08:11:36;;;;;;;0.40;0.40;;;4.20;99.90;3.80;100137.00;;;;5073580;28;20549;-73
2021/12/09 08:14:03;;;;;;;2.20;2.00;;;4.20;99.90;3.80;100130.00;;;;5074525;28;20189;-73
2021/12/09 08:16:37;;;;;;;1.13;0.97;;;4.20;99.90;3.90;100142.00;;;;5074251;28;20166;-73
2021/12/09 08:19:15;;;;;;;0.30;0.30;;;4.30;99.90;4.00;100127.00;;;;5073864;28;20192;-73
2021/12/09 08:21:51;;;;;;;0.53;0.53;;;4.30;99.90;3.90;100129.00;;;;5074127;28;20165;-74
2021/12/09 08:24:19;;;;;;;2.43;1.77;;;4.30;99.90;3.90;100143.00;;;;5073987;28;20180;-74
2021/12/09 08:26:51;;;;;;;1.93;1.83;;;4.40;99.90;4.00;100147.00;;;;5073653;28;20173;-74
2021/12/09 08:29:22;;;;;;;2.30;2.20;;;4.30;99.90;3.80;100133.00;;;;5073831;28;20184;-75
2021/12/09 08:31:53;;;;;;;0.30;0.30;;;4.30;99.90;4.20;100156.00;;;;5056476;28;20216;-74
2021/12/09 08:34:25;;;;;;;1.30;1.23;;;4.40;99.90;4.20;100146.00;;;;5056690;28;20285;-75
2021/12/09 08:36:57;;;;;;;0.50;0.50;;;4.40;99.90;3.90;100137.00;;;;5083325;28;20189;-74
2021/12/09 08:39:30;;;;;;;1.07;0.97;;;4.40;99.90;4.00;100140.00;;;;5090756;28;20189;-74
2021/12/09 08:41:58;;;;;;;0.30;0.30;;;4.40;99.90;4.10;100151.00;;;;5089145;28;20190;-75
2021/12/09 08:44:27;;;;;;;1.07;0.80;;;4.40;99.90;4.50;100158.00;;;;5073311;28;20201;-74
2021/12/09 08:46:59;;;;;;;3.80;1.73;;;4.60;99.90;4.20;100136.00;;;;5089421;28;20186;-75
2021/12/09 08:49:27;;;;;;;0.97;0.97;;;4.60;99.90;4.20;100092.00;;;;5090279;28;20189;-74
2021/12/09 08:52:09;;;;;;;1.37;1.27;;;4.60;99.90;4.00;100144.00;;;;5089358;28;20233;-73
2021/12/09 08:54:44;;;;;;;0.77;0.77;;;4.50;99.90;4.00;100140.00;;;;5089599;28;20159;-73
2021/12/09 08:57:11;;;;;;;0.90;0.90;;;4.50;99.90;4.00;100124.00;;;;5089154;28;20181;-74
2021/12/09 08:59:40;;;;;;;0.63;0.63;;;4.50;99.90;4.30;100140.00;;;;5074343;28;20181;-74
2021/12/09 09:02:12;;;;;;;0.73;0.73;;;4.60;99.90;4.20;100141.00;;;;5059667;28;20182;-74
2021/12/09 09:04:38;;;;;;;2.07;1.87;;;4.70;99.90;4.30;100140.00;;;;5052796;28;20170;-73
2021/12/09 09:07:14;;;;;;;0.43;0.43;;;4.70;99.90;4.10;100146.00;;;;5067193;28;20594;-72
2021/12/09 09:09:48;;;;;;;0.50;0.50;;;4.60;99.90;4.30;100111.00;;;;5056556;28;20181;-72
2021/12/09 09:12:19;;;;;;;0.50;0.50;;;4.70;99.90;4.40;100153.00;;;;5056052;28;20209;-72
2021/12/09 09:14:46;;;;;;;1.77;1.73;;;4.70;99.90;4.20;100164.00;;;;5056490;28;20178;-72
2021/12/09 09:17:15;;;;;;;1.20;1.10;;;4.70;99.90;4.60;100160.00;;;;5055637;28;20226;-72
2021/12/09 09:19:47;;;;;;;0.40;0.40;;;4.80;99.90;4.30;100159.00;;;;5073226;28;20287;-72
2021/12/09 09:22:19;;;;;;;0.93;0.93;;;4.80;99.90;4.20;100121.00;;;;5071915;28;20201;-72
2021/12/09 09:24:50;;;;;;;0.60;0.60;;;4.70;99.90;4.30;100133.00;;;;5072867;28;20323;-72
2021/12/09 09:27:18;;;;;;;0.30;0.30;;;4.70;99.90;4.40;100174.00;;;;5055934;28;20682;-72
2021/12/09 09:29:50;;;;;;;0.40;0.40;;;4.80;99.90;4.20;100174.00;;;;5056735;28;20182;-72
2021/12/09 09:32:24;;;;;;;0.60;0.60;;;4.70;99.90;4.10;100185.00;;;;5072279;28;20291;-72
2021/12/09 09:34:55;;;;;;;0.40;0.40;;;4.70;99.90;4.20;100192.00;;;;5072903;28;20165;-72
2021/12/09 09:37:26;;;;;;;0.97;0.93;;;4.70;99.90;4.40;100169.00;;;;5055253;28;20182;-72
2021/12/09 09:39:58;;;;;;;0.50;0.50;;;4.80;99.90;4.40;100168.00;;;;5069840;28;20185;-72
2021/12/09 09:45:29;;;;;;;0.97;0.97;;;4.90;99.90;4.40;100169.00;;;;5041488;28;20191;-72
2021/12/09 09:48:01;;;;;;;0.40;0.40;;;4.90;99.90;4.60;100175.00;;;;5052597;28;20187;-72
2021/12/09 09:50:27;;;;;;;0.30;0.30;;;4.90;99.90;4.80;100137.00;;;;5052437;28;20183;-72
2021/12/09 09:53:03;;;;;;;0.30;0.30;;;5.00;99.90;4.80;100178.00;;;;5058063;28;20193;-72
2021/12/09 09:55:35;;;;;;;0.30;0.30;;;5.00;99.90;4.90;100193.00;;;;5071934;28;20191;-72
2021/12/09 09:58:04;;;;;;;0.90;0.90;;;5.10;99.90;4.60;100174.00;;;;5070032;28;20181;-76
2021/12/09 10:00:30;;;;;;;3.97;3.70;;;5.10;99.90;4.70;100192.00;;;;5037108;28;20241;-77
2021/12/09 10:02:59;;;;;;;0.83;0.83;;;5.10;99.90;4.50;100182.00;;;;5048529;28;20638;-74
2021/12/09 10:05:33;;;;;;;0.60;0.60;;;5.10;99.90;4.70;100147.00;;;;5057043;28;20197;-77
2021/12/09 10:07:58;;;;;;;0.60;0.60;;;5.10;99.90;4.40;100181.00;;;;5070617;28;20514;-75
2021/12/09 10:10:24;;;;;;;0.40;0.40;;;5.10;99.90;4.60;100182.00;;;;5071875;28;20189;-72
2021/12/09 10:12:59;;;;;;;0.70;0.70;;;5.00;99.90;4.70;100187.00;;;;5071809;28;20211;-72
2021/12/09 10:15:46;;;;;;;0.33;0.33;;;5.10;99.90;4.80;100179.00;;;;5071785;28;20189;-72
2021/12/09 10:18:42;;;;;;;1.53;1.43;;;5.10;99.90;5.10;100194.00;;;;5072900;28;20718;-72
2021/12/09 10:33:22;;;;;;;0.67;0.67;;;5.10;99.90;4.50;100189.00;;;;5092476;27;1323938;-74
2021/12/09 10:35:59;;;;;;;0.83;0.83;;;5.10;99.90;4.90;100187.00;;;;5129844;28;20282;-73
2021/12/09 10:38:36;;;;;;;0.30;0.30;;;5.20;99.90;5.30;100180.00;;;;5099555;28;20183;-68
2021/12/09 10:41:40;;;;;;;0.40;0.40;;;5.40;99.90;5.10;100195.00;;;;5129277;28;20188;-71
2021/12/09 10:44:11;;;;;;;0.50;0.50;;;5.40;99.90;5.30;100177.00;;;;5123338;28;20169;-72
2021/12/09 10:46:55;;;;;;;0.47;0.47;;;5.50;99.90;5.10;100184.00;;;;5097436;28;20636;-72
2021/12/09 10:49:22;;;;;;;0.30;0.30;;;5.60;99.90;5.10;100135.00;;;;5109027;28;20304;-72
2021/12/09 10:51:59;;;;;;;1.20;1.20;;;5.50;99.90;5.20;100181.00;;;;5115531;28;20226;-73
2021/12/09 10:54:36;;;;;;;0.87;0.83;;;5.60;99.90;5.30;100169.00;;;;5118766;28;20632;-73
2021/12/09 10:57:30;;;;;;;0.30;0.30;;;5.70;99.90;6.00;100147.00;;;;5095058;28;20182;-77
2021/12/09 10:59:58;;;;;;;0.83;0.70;;;6.00;99.90;5.60;100160.00;;;;5121562;28;20185;-77
2021/12/09 11:02:27;;;;;;;0.40;0.40;;;6.00;99.90;6.20;100137.00;;;;5102888;28;20203;-74
2021/12/09 11:05:08;;;;;;;0.60;0.60;;;6.20;99.90;6.00;100167.00;;;;5105588;28;20684;-74
2021/12/09 11:07:44;;;;;;;0.30;0.30;;;6.10;99.90;6.40;100110.00;;;;5122781;28;20194;-76
2021/12/09 11:10:22;;;;;;;0.30;0.30;;;6.40;99.90;6.50;100164.00;;;;5113001;28;20192;-77
2021/12/09 11:12:58;;;;;;;0.87;0.87;;;6.50;99.90;6.80;100118.00;;;;5100893;28;20217;-84
2021/12/09 11:15:54;;;;;;;0.30;0.30;;;6.70;99.90;6.50;100115.00;;;;5121578;28;20182;-83
2021/12/09 11:18:39;;;;;;;0.73;0.73;;;6.60;99.90;6.30;100142.00;;;;5112704;28;20185;-80
2021/12/09 11:21:28;;;;;;;0.40;0.40;;;6.70;99.90;6.50;100153.00;;;;5117721;28;20278;-81
2021/12/09 11:24:15;;;;;;;0.30;0.30;;;6.50;99.90;6.00;100149.00;;;;5111673;28;20651;-73
2021/12/09 11:29:39;;;;;;;0.30;0.30;;;6.50;99.90;6.00;100122.00;;;;5118862;28;20189;-75
2021/12/09 11:32:18;;;;;;;0.30;0.30;;;6.30;99.90;6.40;100147.00;;;;5118711;28;20634;-75
2021/12/09 11:35:15;;;;;;;0.30;0.30;;;6.40;99.90;5.80;100140.00;;;;5117821;28;20597;-74
2021/12/09 11:38:17;;;;;;;0.70;0.70;;;6.30;99.90;6.10;100140.00;;;;5126467;28;20545;-73
2021/12/09 11:40:58;;;;;;;0.80;0.80;;;6.30;99.90;6.60;100144.00;;;;5119196;28;20208;-78
2021/12/09 11:43:29;;;;;;;0.40;0.40;;;6.50;99.90;6.90;100091.00;;;;5111445;28;20646;-80
2021/12/09 11:46:00;;;;;;;0.30;0.30;;;6.70;99.90;6.80;100133.00;;;;5086863;28;20187;-81
2021/12/09 11:48:32;;;;;;;0.67;0.67;;;6.70;99.90;5.90;100121.00;;;;5087198;28;20545;-80
2021/12/09 11:50:58;;;;;;;0.50;0.50;;;6.40;99.90;6.20;100135.00;;;;5103666;28;20195;-80
2021/12/09 11:53:37;;;;;;;1.43;1.37;;;6.40;99.90;5.80;100128.00;;;;5104574;28;20248;-80
2021/12/09 11:56:20;;;;;;;0.83;0.70;;;6.20;99.90;6.00;100091.00;;;;5104939;28;20194;-80
2021/12/09 11:59:20;;;;;;;0.30;0.30;;;6.20;99.90;6.20;100141.00;;;;5102426;28;20195;-81